Time;durP1;ratioP1;P1;durP2;ratioP2;P2;SDS_P1;SDS_P2;PMS_P1;PMS_P2;Temp;Humidity;BMP_temperature;BMP_pressure;BME280_temperature;BME280_humidity;BME280_pressure;Samples;Min_cycle;Max_cycle;Signal;HPM_P1;HPM_P2
2021/01/07 00:01:48;;;;;;;10.33;5.27;;;1.90;99.90;;;;;;5042247;28;20461;-78
2021/01/07 00:04:14;;;;;;;6.77;5.77;;;1.90;99.90;;;;;;5045038;28;20236;-78
2021/01/07 00:06:39;;;;;;;6.80;5.53;;;1.80;99.90;;;;;;5042083;28;20181;-78
2021/01/07 00:09:05;;;;;;;6.83;5.90;;;1.90;99.90;;;;;;5044985;28;20778;-77
2021/01/07 00:11:30;;;;;;;6.10;5.50;;;1.90;99.90;;;;;;5045475;28;20184;-78
2021/01/07 00:13:56;;;;;;;6.40;5.77;;;1.90;99.90;;;;;;5042648;28;20196;-78
2021/01/07 00:16:21;;;;;;;7.13;5.30;;;1.90;99.90;;;;;;5044594;28;20189;-78
2021/01/07 00:18:47;;;;;;;7.37;6.27;;;1.90;99.90;;;;;;5042758;28;20182;-78
2021/01/07 00:21:13;;;;;;;6.47;5.87;;;1.90;99.90;;;;;;5046427;28;20182;-78
2021/01/07 00:23:40;;;;;;;7.37;5.80;;;1.90;99.90;;;;;;5042895;28;20616;-78
2021/01/07 00:26:05;;;;;;;8.20;5.80;;;1.80;99.90;;;;;;5046300;28;20749;-79
2021/01/07 00:28:31;;;;;;;7.20;6.00;;;1.80;99.90;;;;;;5025800;28;20433;-78
2021/01/07 00:30:57;;;;;;;9.50;5.83;;;1.80;99.90;;;;;;5043088;28;20177;-78
2021/01/07 00:33:22;;;;;;;7.53;5.60;;;1.80;99.90;;;;;;5044392;28;20288;-78
2021/01/07 00:35:48;;;;;;;6.67;5.90;;;1.80;99.90;;;;;;5025914;28;20182;-78
2021/01/07 00:38:16;;;;;;;8.67;6.60;;;1.80;99.90;;;;;;5049613;28;20190;-78
2021/01/07 00:40:42;;;;;;;8.87;5.40;;;1.80;99.90;;;;;;5042573;28;20240;-78
2021/01/07 00:43:08;;;;;;;6.43;5.73;;;1.80;99.90;;;;;;5048574;28;20970;-78
2021/01/07 00:45:34;;;;;;;6.43;5.77;;;1.80;99.90;;;;;;5045055;28;20612;-78
2021/01/07 00:48:00;;;;;;;7.13;6.40;;;1.80;99.90;;;;;;5042712;28;20190;-78
2021/01/07 00:50:26;;;;;;;10.50;7.40;;;1.80;99.90;;;;;;5043991;28;20178;-78
2021/01/07 00:52:51;;;;;;;8.73;6.07;;;1.80;99.90;;;;;;5041479;28;20425;-78
2021/01/07 00:55:17;;;;;;;6.97;6.27;;;1.80;99.90;;;;;;5027138;28;20209;-78
2021/01/07 00:57:43;;;;;;;8.33;6.73;;;1.90;99.90;;;;;;5041176;28;20547;-78
2021/01/07 01:00:11;;;;;;;8.10;6.97;;;1.80;99.90;;;;;;5043835;28;20679;-78
2021/01/07 01:02:36;;;;;;;10.10;8.00;;;1.80;99.90;;;;;;5041910;28;20590;-78
2021/01/07 01:05:04;;;;;;;9.10;7.57;;;1.80;99.90;;;;;;5042673;28;20415;-78
2021/01/07 01:07:29;;;;;;;8.90;6.90;;;1.80;99.90;;;;;;5025220;28;20181;-78
2021/01/07 01:09:55;;;;;;;8.03;6.67;;;1.70;99.90;;;;;;5024094;28;20943;-78
2021/01/07 01:12:21;;;;;;;10.57;7.40;;;1.70;99.90;;;;;;5025893;28;20228;-78
2021/01/07 01:14:47;;;;;;;9.10;7.13;;;1.70;99.90;;;;;;5040552;28;20212;-78
2021/01/07 01:17:13;;;;;;;10.17;8.37;;;1.70;99.90;;;;;;5027402;28;20400;-78
2021/01/07 01:19:38;;;;;;;11.93;7.53;;;1.70;99.90;;;;;;5041484;28;20864;-78
2021/01/07 01:22:04;;;;;;;8.23;6.80;;;1.70;99.90;;;;;;5025660;28;20238;-78
2021/01/07 01:24:30;;;;;;;9.57;7.60;;;1.70;99.90;;;;;;5042860;28;20195;-78
2021/01/07 01:26:57;;;;;;;10.33;8.07;;;1.80;99.90;;;;;;5041967;28;20175;-78
2021/01/07 01:29:22;;;;;;;10.17;7.03;;;1.80;99.90;;;;;;5043686;28;20276;-78
2021/01/07 01:31:48;;;;;;;10.70;8.03;;;1.80;99.90;;;;;;5041022;28;20503;-79
2021/01/07 01:34:15;;;;;;;9.73;7.40;;;1.80;99.90;;;;;;5044328;28;20707;-78
2021/01/07 01:36:41;;;;;;;9.97;8.00;;;1.80;99.90;;;;;;5041253;28;20181;-78
2021/01/07 01:39:07;;;;;;;10.70;7.70;;;1.80;99.90;;;;;;5043906;28;20425;-78
2021/01/07 01:41:39;;;;;;;10.27;7.63;;;1.80;99.90;;;;;;5042232;28;20440;-78
2021/01/07 01:44:07;;;;;;;10.40;7.27;;;1.70;99.90;;;;;;5043589;28;20400;-78
2021/01/07 01:46:35;;;;;;;10.33;7.90;;;1.70;99.90;;;;;;5042449;28;20414;-78
2021/01/07 01:49:01;;;;;;;10.60;7.40;;;1.70;99.90;;;;;;5042528;28;20393;-78
2021/01/07 01:51:34;;;;;;;10.37;8.00;;;1.70;99.90;;;;;;5042736;28;20841;-78
2021/01/07 01:54:00;;;;;;;7.60;6.80;;;1.70;99.90;;;;;;5041217;28;20456;-78
2021/01/07 01:56:26;;;;;;;11.63;7.70;;;1.70;99.90;;;;;;5042525;28;20442;-78
2021/01/07 01:58:53;;;;;;;9.77;7.47;;;1.70;99.90;;;;;;5043697;28;20234;-77
2021/01/07 02:01:19;;;;;;;7.93;6.30;;;1.70;99.90;;;;;;5047290;28;20431;-78
2021/01/07 02:03:46;;;;;;;9.80;7.70;;;1.70;99.90;;;;;;5043661;28;20483;-78
2021/01/07 02:06:13;;;;;;;8.53;6.47;;;1.70;99.90;;;;;;5047822;28;20412;-78
2021/01/07 02:08:43;;;;;;;9.60;7.13;;;1.70;99.90;;;;;;5033076;28;20450;-78
2021/01/07 02:11:13;;;;;;;9.00;7.40;;;1.70;99.90;;;;;;5048374;28;20420;-78
2021/01/07 02:13:39;;;;;;;9.57;7.00;;;1.60;99.90;;;;;;5043807;28;20460;-78
2021/01/07 02:16:06;;;;;;;10.33;7.23;;;1.70;99.90;;;;;;5045834;28;20452;-78
2021/01/07 02:18:32;;;;;;;10.07;7.87;;;1.70;99.90;;;;;;5027137;28;20960;-78
2021/01/07 02:21:02;;;;;;;10.93;7.50;;;1.70;99.90;;;;;;5044547;28;20423;-78
2021/01/07 02:23:27;;;;;;;9.27;6.50;;;1.60;99.90;;;;;;5027464;28;20473;-78
2021/01/07 02:25:53;;;;;;;9.07;7.27;;;1.70;99.90;;;;;;5044756;28;20769;-78
2021/01/07 02:28:19;;;;;;;9.33;7.13;;;1.70;99.90;;;;;;5047164;28;20234;-78
2021/01/07 02:30:45;;;;;;;9.57;7.70;;;1.70;99.90;;;;;;5026434;28;20415;-78
2021/01/07 02:33:11;;;;;;;8.70;7.00;;;1.70;99.90;;;;;;5046640;28;20214;-78
2021/01/07 02:35:36;;;;;;;8.03;6.67;;;1.60;99.90;;;;;;5044653;28;20398;-78
2021/01/07 02:38:02;;;;;;;12.60;8.30;;;1.60;99.90;;;;;;5045679;28;20559;-78
2021/01/07 02:40:28;;;;;;;8.60;6.33;;;1.60;99.90;;;;;;5045462;28;20221;-78
2021/01/07 02:42:53;;;;;;;9.90;7.47;;;1.60;99.90;;;;;;5026741;28;21025;-78
2021/01/07 02:45:20;;;;;;;9.97;6.83;;;1.60;99.90;;;;;;5030155;28;20197;-78
2021/01/07 02:47:46;;;;;;;8.03;6.27;;;1.60;99.90;;;;;;5043832;28;20208;-78
2021/01/07 02:50:11;;;;;;;8.90;6.67;;;1.60;99.90;;;;;;5046479;28;20412;-78
2021/01/07 02:52:37;;;;;;;8.57;6.30;;;1.60;99.90;;;;;;5043855;28;20182;-78
2021/01/07 02:55:04;;;;;;;10.10;7.57;;;1.60;99.90;;;;;;5045566;28;20279;-77
2021/01/07 02:57:30;;;;;;;8.23;6.00;;;1.60;99.90;;;;;;5027390;28;20186;-78
2021/01/07 02:59:55;;;;;;;8.83;6.63;;;1.60;99.90;;;;;;5044351;28;20403;-78
2021/01/07 03:02:21;;;;;;;7.10;6.00;;;1.60;99.90;;;;;;5046253;28;20611;-77
2021/01/07 03:04:46;;;;;;;8.63;7.03;;;1.70;99.90;;;;;;5043042;28;20231;-79
2021/01/07 03:07:12;;;;;;;8.60;6.30;;;1.70;99.90;;;;;;5028460;28;20180;-78
2021/01/07 03:09:37;;;;;;;8.60;6.77;;;1.70;99.90;;;;;;5044224;28;20268;-78
2021/01/07 03:12:17;;;;;;;7.40;6.50;;;1.60;99.90;;;;;;5045043;28;21125;-78
2021/01/07 03:14:42;;;;;;;6.70;5.50;;;1.60;99.90;;;;;;5043543;28;20202;-78
2021/01/07 03:17:08;;;;;;;7.60;6.60;;;1.60;99.90;;;;;;5045365;28;20950;-78
2021/01/07 03:19:33;;;;;;;9.87;6.90;;;1.60;99.90;;;;;;5044407;28;20181;-78
2021/01/07 03:21:59;;;;;;;6.77;6.07;;;1.70;99.90;;;;;;5043964;28;20668;-78
2021/01/07 03:24:24;;;;;;;8.20;5.93;;;1.70;99.90;;;;;;5045477;28;20203;-78
2021/01/07 03:26:50;;;;;;;13.30;7.20;;;1.70;99.90;;;;;;5042894;28;20201;-78
2021/01/07 03:29:16;;;;;;;6.47;5.60;;;1.60;99.90;;;;;;5046347;28;20264;-78
2021/01/07 03:31:42;;;;;;;10.07;6.53;;;1.60;99.90;;;;;;5044381;28;20494;-78
2021/01/07 03:34:09;;;;;;;7.30;5.83;;;1.60;99.90;;;;;;5046245;28;20206;-78
2021/01/07 03:36:35;;;;;;;8.73;6.73;;;1.60;99.90;;;;;;5027684;28;20238;-78
2021/01/07 03:39:00;;;;;;;9.67;6.87;;;1.60;99.90;;;;;;5045432;28;20425;-78
2021/01/07 03:41:26;;;;;;;6.97;6.03;;;1.60;99.90;;;;;;5045966;28;20202;-78
2021/01/07 03:43:51;;;;;;;7.80;6.20;;;1.60;99.90;;;;;;5025846;28;20437;-78
2021/01/07 03:46:17;;;;;;;8.37;5.83;;;1.60;99.90;;;;;;5046972;28;20240;-78
2021/01/07 03:48:42;;;;;;;7.07;6.20;;;1.60;99.90;;;;;;5042751;28;20176;-78
2021/01/07 03:51:08;;;;;;;5.70;5.03;;;1.60;99.90;;;;;;5044823;28;20667;-78
2021/01/07 03:53:33;;;;;;;6.80;5.70;;;1.60;99.90;;;;;;5043301;28;20214;-78
2021/01/07 03:55:59;;;;;;;9.37;6.10;;;1.60;99.90;;;;;;5043549;28;20650;-78
2021/01/07 03:58:27;;;;;;;7.40;5.07;;;1.60;99.90;;;;;;5044721;28;20546;-78
2021/01/07 04:00:52;;;;;;;8.13;5.80;;;1.70;99.90;;;;;;5042915;28;20182;-78
2021/01/07 04:03:18;;;;;;;7.77;5.43;;;1.70;99.90;;;;;;5045595;28;20472;-78
2021/01/07 04:05:44;;;;;;;6.87;5.57;;;1.60;99.90;;;;;;5038281;28;20174;-78
2021/01/07 04:08:09;;;;;;;5.30;4.10;;;1.60;99.90;;;;;;5046777;28;20177;-77
2021/01/07 04:10:37;;;;;;;5.60;4.90;;;1.60;99.90;;;;;;5045349;28;20715;-79
2021/01/07 04:13:05;;;;;;;8.30;5.43;;;1.50;99.90;;;;;;5027576;28;20207;-78
2021/01/07 04:15:33;;;;;;;5.97;5.20;;;1.60;99.90;;;;;;5045631;28;20445;-78
2021/01/07 04:18:01;;;;;;;5.83;5.23;;;1.50;99.90;;;;;;5044529;28;20449;-78
2021/01/07 04:20:28;;;;;;;6.00;5.13;;;1.50;99.90;;;;;;5044345;28;20415;-78
2021/01/07 04:22:54;;;;;;;5.90;5.30;;;1.50;99.90;;;;;;5042254;28;20439;-78
2021/01/07 04:25:20;;;;;;;6.40;5.10;;;1.50;99.90;;;;;;5044962;28;20447;-78
2021/01/07 04:27:45;;;;;;;5.67;4.53;;;1.60;99.90;;;;;;5041646;28;20246;-78
2021/01/07 04:30:11;;;;;;;6.20;5.00;;;1.60;99.90;;;;;;5044302;28;20232;-78
2021/01/07 04:32:37;;;;;;;6.87;5.10;;;1.60;99.90;;;;;;5042257;28;20247;-78
2021/01/07 04:35:05;;;;;;;5.37;4.90;;;1.60;99.90;;;;;;5025350;28;20499;-78
2021/01/07 04:37:30;;;;;;;10.23;6.57;;;1.60;99.90;;;;;;5043453;28;20214;-78
2021/01/07 04:39:56;;;;;;;4.47;4.07;;;1.60;99.90;;;;;;5042531;28;20459;-78
2021/01/07 04:42:22;;;;;;;5.87;4.70;;;1.60;99.90;;;;;;5044371;28;20246;-78
2021/01/07 04:44:48;;;;;;;5.73;4.00;;;1.60;99.90;;;;;;5040853;28;20197;-78
2021/01/07 04:47:14;;;;;;;5.47;4.97;;;1.60;99.90;;;;;;5044993;28;20425;-78
2021/01/07 04:49:40;;;;;;;6.10;5.60;;;1.60;99.90;;;;;;5042025;28;20781;-78
2021/01/07 04:52:06;;;;;;;7.80;5.20;;;1.60;99.90;;;;;;5025802;28;20444;-78
2021/01/07 04:54:31;;;;;;;5.60;4.97;;;1.60;99.90;;;;;;5042448;28;20463;-78
2021/01/07 04:56:58;;;;;;;6.13;5.07;;;1.60;99.90;;;;;;5042013;28;20559;-78
2021/01/07 04:59:23;;;;;;;6.40;4.83;;;1.60;99.90;;;;;;5043845;28;20185;-78
2021/01/07 05:01:49;;;;;;;6.47;5.33;;;1.60;99.90;;;;;;5025349;28;21043;-78
2021/01/07 05:04:17;;;;;;;8.33;6.70;;;1.60;99.90;;;;;;5044967;28;20205;-78
2021/01/07 05:06:46;;;;;;;5.50;5.00;;;1.60;99.90;;;;;;5041330;28;20398;-78
2021/01/07 05:09:12;;;;;;;4.97;4.47;;;1.60;99.90;;;;;;5044407;28;20521;-78
2021/01/07 05:11:37;;;;;;;4.70;4.20;;;1.60;99.90;;;;;;5042213;28;20402;-78
2021/01/07 05:14:05;;;;;;;7.90;5.73;;;1.60;99.90;;;;;;5024675;28;20275;-78
2021/01/07 05:16:31;;;;;;;6.33;4.80;;;1.60;99.90;;;;;;5042789;28;20657;-78
2021/01/07 05:18:57;;;;;;;5.77;5.17;;;1.50;99.90;;;;;;5041638;28;20541;-77
2021/01/07 05:21:24;;;;;;;6.17;4.83;;;1.50;99.90;;;;;;5043498;28;20425;-78
2021/01/07 05:23:51;;;;;;;6.50;5.27;;;1.50;99.90;;;;;;5022846;28;20441;-78
2021/01/07 05:26:18;;;;;;;8.37;4.70;;;1.50;99.90;;;;;;5044075;28;20513;-78
2021/01/07 05:28:51;;;;;;;6.60;5.43;;;1.50;99.90;;;;;;5041185;28;20435;-78
2021/01/07 05:31:21;;;;;;;5.47;4.90;;;1.50;99.90;;;;;;5037468;28;20430;-78
2021/01/07 05:33:47;;;;;;;5.70;5.10;;;1.50;99.90;;;;;;5036963;28;20439;-78
2021/01/07 05:36:26;;;;;;;4.73;3.90;;;1.50;99.90;;;;;;5043907;28;20460;-78
2021/01/07 05:38:55;;;;;;;7.10;4.70;;;1.50;99.90;;;;;;5037937;28;20845;-78
2021/01/07 05:41:21;;;;;;;6.10;4.80;;;1.50;99.90;;;;;;5026350;28;20499;-78
2021/01/07 05:43:58;;;;;;;6.13;5.07;;;1.50;99.90;;;;;;5022485;28;20493;-78
2021/01/07 05:46:24;;;;;;;6.90;6.20;;;1.50;99.90;;;;;;5038471;28;20769;-78
2021/01/07 05:48:53;;;;;;;4.83;4.33;;;1.50;99.90;;;;;;5043875;28;20982;-78
2021/01/07 05:51:23;;;;;;;6.40;4.17;;;1.50;99.90;;;;;;5040895;28;20475;-78
2021/01/07 05:53:53;;;;;;;6.80;5.00;;;1.50;99.90;;;;;;5066767;22;20501;-78
2021/01/07 05:56:20;;;;;;;7.20;5.77;;;1.40;99.90;;;;;;5080923;28;20422;-78
2021/01/07 05:58:53;;;;;;;6.93;5.17;;;1.40;99.90;;;;;;5058449;28;20424;-78
2021/01/07 06:01:20;;;;;;;7.03;5.07;;;1.50;99.90;;;;;;5077479;28;20819;-78
2021/01/07 06:03:53;;;;;;;8.53;5.90;;;1.50;99.90;;;;;;5050048;28;20428;-78
2021/01/07 06:06:23;;;;;;;7.17;5.67;;;1.50;99.90;;;;;;5041840;28;20445;-78
2021/01/07 06:08:51;;;;;;;6.53;5.67;;;1.40;99.90;;;;;;5066550;28;20448;-78
2021/01/07 06:11:18;;;;;;;6.57;5.90;;;1.40;99.90;;;;;;5059657;28;20420;-78
2021/01/07 06:13:47;;;;;;;5.63;5.07;;;1.40;99.90;;;;;;5069399;28;20411;-78
2021/01/07 06:16:15;;;;;;;5.80;4.67;;;1.40;99.90;;;;;;5049702;28;20408;-78
2021/01/07 06:18:41;;;;;;;6.10;5.17;;;1.40;99.90;;;;;;5068090;28;20970;-78
2021/01/07 06:21:08;;;;;;;6.00;4.80;;;1.40;99.90;;;;;;5066563;28;20390;-78
2021/01/07 06:23:40;;;;;;;8.47;5.90;;;1.40;99.90;;;;;;5063091;28;20472;-78
2021/01/07 06:26:25;;;;;;;6.30;5.00;;;1.40;99.90;;;;;;5061329;28;20423;-78
2021/01/07 06:28:53;;;;;;;8.07;5.47;;;1.40;99.90;;;;;;5057143;28;20719;-78
2021/01/07 06:31:19;;;;;;;11.30;5.87;;;1.40;99.90;;;;;;5063223;28;20452;-78
2021/01/07 06:33:48;;;;;;;5.87;5.00;;;1.40;99.90;;;;;;5055921;28;20858;-78
2021/01/07 06:36:14;;;;;;;6.53;5.33;;;1.40;99.90;;;;;;5045448;28;20431;-78
2021/01/07 06:38:52;;;;;;;5.07;4.57;;;1.40;99.90;;;;;;5060989;28;20438;-79
2021/01/07 06:41:19;;;;;;;7.63;5.30;;;1.40;99.90;;;;;;5056790;28;20190;-78
2021/01/07 06:43:48;;;;;;;6.03;4.70;;;1.50;99.90;;;;;;5057516;28;20971;-78
2021/01/07 06:46:36;;;;;;;5.47;4.60;;;1.40;99.90;;;;;;5067705;28;20813;-78
2021/01/07 06:49:23;;;;;;;6.57;5.90;;;1.40;99.90;;;;;;5063862;28;20489;-78
2021/01/07 06:52:00;;;;;;;7.23;5.13;;;1.50;99.90;;;;;;5061237;28;20450;-78
2021/01/07 06:54:38;;;;;;;9.87;5.50;;;1.40;99.90;;;;;;5062043;28;20429;-74
2021/01/07 06:57:07;;;;;;;6.47;5.60;;;1.40;99.90;;;;;;5062319;28;20573;-74
2021/01/07 06:59:33;;;;;;;10.83;6.70;;;1.50;99.90;;;;;;5058927;28;20433;-74
2021/01/07 07:01:59;;;;;;;7.37;5.90;;;1.50;99.90;;;;;;5061056;28;20488;-74
2021/01/07 07:04:32;;;;;;;6.87;5.13;;;1.50;99.90;;;;;;5057396;28;20216;-75
2021/01/07 07:07:16;;;;;;;9.80;6.93;;;1.60;99.90;;;;;;5067711;28;20914;-74
2021/01/07 07:09:45;;;;;;;7.20;6.50;;;1.60;99.90;;;;;;5065784;28;20508;-74
2021/01/07 07:12:29;;;;;;;9.43;6.47;;;1.60;99.90;;;;;;5062175;28;20428;-74
2021/01/07 07:14:57;;;;;;;7.80;6.10;;;1.60;99.90;;;;;;5059646;28;20509;-74
2021/01/07 07:17:23;;;;;;;11.53;6.90;;;1.70;99.90;;;;;;5064607;28;20435;-74
2021/01/07 07:19:49;;;;;;;12.20;7.80;;;1.70;99.90;;;;;;5061388;28;20446;-74
2021/01/07 07:22:18;;;;;;;6.90;5.50;;;1.70;99.90;;;;;;5057404;28;20223;-74
2021/01/07 07:24:49;;;;;;;10.03;6.70;;;1.70;99.90;;;;;;5064477;28;20300;-74
2021/01/07 07:27:17;;;;;;;9.50;7.30;;;1.70;99.90;;;;;;5062071;28;20822;-74
2021/01/07 07:29:47;;;;;;;11.73;7.13;;;1.70;99.90;;;;;;5043448;28;20428;-74
2021/01/07 07:32:24;;;;;;;11.33;6.87;;;1.70;99.90;;;;;;5064555;28;20956;-74
2021/01/07 07:34:51;;;;;;;7.27;6.07;;;1.60;99.90;;;;;;5061467;28;20472;-74
2021/01/07 07:37:22;;;;;;;10.63;7.13;;;1.60;99.90;;;;;;5044634;28;20456;-74
2021/01/07 07:39:48;;;;;;;8.67;6.80;;;1.70;99.90;;;;;;5057808;28;20428;-74
2021/01/07 07:42:15;;;;;;;11.03;7.97;;;1.70;99.90;;;;;;5064483;28;20501;-74
2021/01/07 07:44:40;;;;;;;13.20;8.63;;;1.70;99.90;;;;;;5061371;28;20434;-74
2021/01/07 07:47:06;;;;;;;8.97;7.33;;;1.70;99.90;;;;;;5063164;28;20402;-74
2021/01/07 07:49:32;;;;;;;10.00;7.57;;;1.70;99.90;;;;;;5062709;28;20184;-74
2021/01/07 07:51:57;;;;;;;11.77;7.87;;;1.70;99.90;;;;;;5061980;28;20189;-74
2021/01/07 07:54:23;;;;;;;18.50;9.63;;;1.70;99.90;;;;;;5062989;28;20742;-74
2021/01/07 07:56:57;;;;;;;9.87;6.93;;;1.70;99.90;;;;;;5060351;28;20213;-74
2021/01/07 07:59:23;;;;;;;9.93;6.90;;;1.70;99.90;;;;;;5058381;28;20682;-74
2021/01/07 08:01:49;;;;;;;13.30;9.37;;;1.80;99.90;;;;;;5064124;28;20464;-73
2021/01/07 08:04:17;;;;;;;14.70;8.60;;;1.80;99.90;;;;;;5060635;28;20207;-74
2021/01/07 08:06:44;;;;;;;11.30;7.53;;;1.80;99.90;;;;;;5064069;28;20419;-74
2021/01/07 08:09:12;;;;;;;11.30;8.40;;;1.80;99.90;;;;;;5061088;28;20948;-74
2021/01/07 08:11:46;;;;;;;14.30;9.80;;;1.80;99.90;;;;;;5063145;28;20457;-74
2021/01/07 08:14:24;;;;;;;21.57;14.80;;;1.80;99.90;;;;;;5060604;28;20462;-74
2021/01/07 08:16:57;;;;;;;18.53;10.13;;;1.90;99.90;;;;;;5057150;28;20901;-74
2021/01/07 08:19:31;;;;;;;17.03;10.90;;;1.90;99.90;;;;;;5057694;28;20439;-74
2021/01/07 08:21:57;;;;;;;18.03;12.07;;;1.80;99.90;;;;;;5062610;28;20458;-74
2021/01/07 08:24:24;;;;;;;17.93;11.43;;;1.90;99.90;;;;;;5060658;28;20860;-74
2021/01/07 08:27:05;;;;;;;17.00;9.73;;;1.90;99.90;;;;;;5063752;28;20430;-74
2021/01/07 08:29:34;;;;;;;13.70;10.63;;;2.00;99.90;;;;;;5061763;28;20503;-74
2021/01/07 08:32:03;;;;;;;15.37;10.03;;;2.00;99.90;;;;;;5061940;28;20425;-74
2021/01/07 08:34:30;;;;;;;12.93;8.73;;;2.10;99.90;;;;;;5065082;28;20436;-75
2021/01/07 08:37:05;;;;;;;13.27;9.00;;;2.00;99.90;;;;;;5062438;28;20774;-74
2021/01/07 08:39:35;;;;;;;10.80;7.70;;;2.00;99.90;;;;;;5061866;28;20455;-75
2021/01/07 08:42:02;;;;;;;11.20;8.10;;;2.10;99.90;;;;;;5061860;28;20549;-74
2021/01/07 08:44:28;;;;;;;12.60;8.27;;;2.10;99.90;;;;;;5061093;28;20949;-75
2021/01/07 08:46:54;;;;;;;11.50;7.53;;;2.10;99.90;;;;;;5062594;28;20419;-74
2021/01/07 08:49:20;;;;;;;12.77;8.20;;;2.10;99.90;;;;;;5059910;28;20521;-74
2021/01/07 08:51:48;;;;;;;13.00;8.63;;;2.20;99.90;;;;;;5055966;28;20185;-75
2021/01/07 08:54:18;;;;;;;15.00;7.10;;;2.20;99.90;;;;;;5062483;28;20462;-74
2021/01/07 08:56:45;;;;;;;11.90;7.93;;;2.30;99.90;;;;;;5059884;28;20701;-74
2021/01/07 08:59:32;;;;;;;11.90;8.40;;;2.30;99.90;;;;;;5062522;28;20429;-74
2021/01/07 09:02:04;;;;;;;12.10;8.27;;;2.30;99.90;;;;;;5058522;28;20460;-74
2021/01/07 09:04:43;;;;;;;11.17;7.77;;;2.20;99.90;;;;;;5061337;28;20930;-74
2021/01/07 09:07:17;;;;;;;12.77;7.73;;;2.30;99.90;;;;;;5062022;28;20416;-74
2021/01/07 09:09:50;;;;;;;13.90;8.00;;;2.30;99.90;;;;;;5059925;28;20470;-74
2021/01/07 09:12:22;;;;;;;12.20;8.20;;;2.30;99.90;;;;;;5055647;28;20430;-74
2021/01/07 09:15:00;;;;;;;12.77;8.37;;;2.40;99.90;;;;;;5055399;28;20436;-74
2021/01/07 09:17:38;;;;;;;12.83;9.70;;;2.40;99.90;;;;;;5057842;28;20437;-74
2021/01/07 09:20:06;;;;;;;15.80;10.40;;;2.40;99.90;;;;;;5061631;28;20402;-74
2021/01/07 09:22:31;;;;;;;13.97;10.10;;;2.50;99.90;;;;;;5061002;28;20518;-74
2021/01/07 09:24:59;;;;;;;12.90;9.10;;;2.50;99.90;;;;;;5061304;28;20439;-74
2021/01/07 09:27:25;;;;;;;14.50;9.03;;;2.50;99.90;;;;;;5060226;28;20221;-74
2021/01/07 09:29:51;;;;;;;11.70;8.93;;;2.50;99.90;;;;;;5044544;28;20955;-76
2021/01/07 09:32:17;;;;;;;11.17;7.70;;;2.40;99.90;;;;;;5059211;28;20189;-74
2021/01/07 09:34:43;;;;;;;12.30;8.70;;;2.50;99.90;;;;;;5044096;28;20226;-75
2021/01/07 09:37:26;;;;;;;13.07;8.43;;;2.60;99.90;;;;;;5059840;28;20415;-74
2021/01/07 09:39:54;;;;;;;12.27;8.77;;;2.60;99.90;;;;;;5056186;28;20392;-74
2021/01/07 09:42:21;;;;;;;12.40;8.57;;;2.60;99.90;;;;;;5062369;28;20456;-74
2021/01/07 09:44:48;;;;;;;12.13;8.30;;;2.60;99.90;;;;;;5058888;28;21065;-74
2021/01/07 09:47:15;;;;;;;11.00;8.67;;;2.60;99.90;;;;;;5062268;28;20419;-74
2021/01/07 09:49:40;;;;;;;10.90;7.60;;;2.60;99.90;;;;;;5059470;28;20870;-74
2021/01/07 09:52:06;;;;;;;14.97;8.90;;;2.60;99.90;;;;;;5061144;28;20542;-75
2021/01/07 09:54:32;;;;;;;13.07;9.20;;;2.70;99.90;;;;;;5060381;28;20606;-74
2021/01/07 09:57:00;;;;;;;10.00;8.17;;;2.70;99.90;;;;;;5060132;28;20438;-74
2021/01/07 09:59:28;;;;;;;9.83;7.80;;;2.70;99.90;;;;;;5061453;28;20509;-75
2021/01/07 10:01:56;;;;;;;13.77;9.50;;;2.80;99.90;;;;;;5059212;28;20470;-74
2021/01/07 10:04:22;;;;;;;12.90;8.87;;;2.70;99.90;;;;;;5061780;28;20442;-75
2021/01/07 10:06:49;;;;;;;12.27;8.57;;;2.70;99.90;;;;;;5058797;28;20444;-74
2021/01/07 10:09:15;;;;;;;10.70;7.50;;;2.60;99.90;;;;;;5062048;28;20484;-75
2021/01/07 10:11:40;;;;;;;12.60;8.70;;;2.60;99.90;;;;;;5059360;28;20419;-74
2021/01/07 10:14:06;;;;;;;10.43;7.27;;;2.70;99.90;;;;;;5060629;28;20798;-74
2021/01/07 10:16:32;;;;;;;8.70;6.60;;;2.70;99.90;;;;;;5060835;28;20650;-74
2021/01/07 10:18:57;;;;;;;7.93;5.40;;;2.70;99.90;;;;;;5061331;28;20195;-74
2021/01/07 10:21:24;;;;;;;8.40;6.10;;;2.70;99.90;;;;;;5065713;28;20196;-74
2021/01/07 10:23:55;;;;;;;10.53;7.47;;;2.70;99.90;;;;;;5062288;28;20577;-74
2021/01/07 10:26:21;;;;;;;11.20;7.00;;;2.80;99.90;;;;;;5065882;28;20506;-74
2021/01/07 10:28:48;;;;;;;11.87;7.30;;;2.80;99.90;;;;;;5062394;28;20415;-75
2021/01/07 10:31:17;;;;;;;12.23;7.47;;;2.90;99.90;;;;;;5047996;28;20435;-75
2021/01/07 10:33:45;;;;;;;10.00;7.90;;;2.90;99.90;;;;;;5044343;28;20430;-75
2021/01/07 10:36:14;;;;;;;10.67;7.30;;;2.90;99.90;;;;;;5065176;28;20438;-74
2021/01/07 10:38:40;;;;;;;9.10;6.90;;;3.00;99.90;;;;;;5062965;28;20401;-75
2021/01/07 10:41:07;;;;;;;11.60;8.10;;;3.00;99.90;;;;;;5064293;28;20420;-75
2021/01/07 10:43:34;;;;;;;9.80;7.20;;;3.00;99.90;;;;;;5063546;28;20472;-74
2021/01/07 10:46:00;;;;;;;12.60;8.27;;;3.10;99.90;;;;;;5063411;28;20423;-74
2021/01/07 10:48:26;;;;;;;11.83;8.17;;;3.10;99.90;;;;;;5064728;28;20435;-75
2021/01/07 10:50:53;;;;;;;11.43;7.10;;;3.00;99.90;;;;;;5062183;28;20427;-75
2021/01/07 10:53:37;;;;;;;8.70;6.60;;;3.00;99.90;;;;;;5065499;28;20217;-74
2021/01/07 10:56:04;;;;;;;9.07;5.70;;;3.10;99.90;;;;;;5061841;28;20407;-75
2021/01/07 10:58:34;;;;;;;8.27;6.90;;;3.10;99.90;;;;;;5064252;28;20815;-74
2021/01/07 11:01:08;;;;;;;9.50;6.73;;;3.20;99.90;;;;;;5063004;28;20933;-75
2021/01/07 11:03:50;;;;;;;9.20;5.97;;;3.20;99.90;;;;;;5063302;28;20445;-75
2021/01/07 11:06:20;;;;;;;8.70;6.20;;;3.30;99.90;;;;;;5057863;28;20435;-75
2021/01/07 11:09:02;;;;;;;9.93;6.13;;;3.30;99.90;;;;;;5058120;28;20395;-74
2021/01/07 11:11:35;;;;;;;9.03;6.27;;;3.30;99.90;;;;;;5061324;28;20420;-75
2021/01/07 11:14:11;;;;;;;9.00;6.80;;;3.40;99.90;;;;;;5044700;28;20425;-75
2021/01/07 11:16:41;;;;;;;9.90;6.70;;;3.30;99.90;;;;;;5064132;28;20427;-75
2021/01/07 11:19:09;;;;;;;8.60;6.67;;;3.20;99.90;;;;;;5062515;28;20413;-74
2021/01/07 11:21:45;;;;;;;9.30;6.53;;;3.20;99.90;;;;;;5063637;28;20424;-74
2021/01/07 11:24:11;;;;;;;7.77;6.30;;;3.30;99.90;;;;;;5061755;28;20415;-75
2021/01/07 11:26:39;;;;;;;10.80;7.00;;;3.20;99.90;;;;;;5063913;28;20417;-75
2021/01/07 11:29:06;;;;;;;8.47;6.10;;;3.20;99.90;;;;;;5044753;28;20475;-74
2021/01/07 11:31:36;;;;;;;8.50;6.27;;;3.20;99.90;;;;;;5063085;28;20421;-74
2021/01/07 11:34:02;;;;;;;9.03;6.23;;;3.20;99.90;;;;;;5062609;28;20485;-74
2021/01/07 11:36:37;;;;;;;12.07;6.87;;;3.30;99.90;;;;;;5062639;28;20425;-74
2021/01/07 11:39:04;;;;;;;8.37;5.80;;;3.40;99.90;;;;;;5063890;28;20963;-74
2021/01/07 11:41:54;;;;;;;6.70;4.97;;;3.40;99.90;;;;;;5063688;28;20416;-74
2021/01/07 11:44:29;;;;;;;12.27;6.97;;;3.40;99.90;;;;;;5057622;28;20787;-74
2021/01/07 11:47:04;;;;;;;14.10;6.40;;;3.40;99.90;;;;;;5059220;28;20977;-74
2021/01/07 11:49:32;;;;;;;9.70;7.07;;;3.50;99.90;;;;;;5045763;28;20502;-74
2021/01/07 11:51:57;;;;;;;7.93;6.20;;;3.60;99.90;;;;;;5062066;28;20424;-74
2021/01/07 11:54:25;;;;;;;13.10;4.93;;;3.70;99.90;;;;;;5063671;28;20804;-74
2021/01/07 11:56:51;;;;;;;10.23;6.80;;;3.70;99.90;;;;;;5061193;28;20619;-74
2021/01/07 11:59:18;;;;;;;8.20;6.00;;;3.60;99.90;;;;;;5046227;28;20483;-74
2021/01/07 12:01:44;;;;;;;8.50;5.50;;;3.60;99.90;;;;;;5060854;28;20956;-74
2021/01/07 12:04:11;;;;;;;8.33;6.13;;;3.50;99.90;;;;;;5061505;28;20453;-74
2021/01/07 12:06:38;;;;;;;9.47;6.30;;;3.50;99.90;;;;;;5060875;28;20421;-74
2021/01/07 12:09:28;;;;;;;7.70;6.37;;;3.50;99.90;;;;;;5044398;28;20427;-74
2021/01/07 12:12:03;;;;;;;10.00;7.00;;;3.50;99.90;;;;;;5058039;28;20433;-74
2021/01/07 12:14:39;;;;;;;11.13;7.57;;;3.50;99.90;;;;;;5062516;28;20443;-73
2021/01/07 12:17:06;;;;;;;10.00;6.80;;;3.50;99.90;;;;;;5044596;28;20791;-74
2021/01/07 12:19:33;;;;;;;11.47;7.83;;;3.50;99.90;;;;;;5062399;28;20435;-74
2021/01/07 12:22:00;;;;;;;12.40;7.93;;;3.50;99.90;;;;;;5061431;28;20462;-73
2021/01/07 12:24:29;;;;;;;10.60;7.73;;;3.60;99.90;;;;;;5062700;28;20436;-74
2021/01/07 12:26:55;;;;;;;10.70;6.83;;;3.60;99.90;;;;;;5060858;28;20425;-74
2021/01/07 12:29:22;;;;;;;11.10;6.67;;;3.70;99.90;;;;;;5063689;28;20428;-74
2021/01/07 12:32:18;;;;;;;11.27;7.33;;;3.70;99.90;;;;;;5060314;28;20198;-74
2021/01/07 12:34:58;;;;;;;11.87;7.97;;;3.60;99.90;;;;;;5057138;28;20453;-74
2021/01/07 12:37:27;;;;;;;13.03;8.97;;;3.60;99.90;;;;;;5057957;28;20424;-74
2021/01/07 12:40:01;;;;;;;11.90;7.93;;;3.70;99.90;;;;;;5063181;28;20419;-74
2021/01/07 12:42:40;;;;;;;7.53;6.30;;;3.60;99.90;;;;;;5060622;28;20886;-74
2021/01/07 12:45:09;;;;;;;12.03;7.40;;;3.70;99.90;;;;;;5060722;28;20436;-74
2021/01/07 12:47:34;;;;;;;10.00;7.83;;;3.60;99.90;;;;;;5061898;28;20836;-74
2021/01/07 12:50:01;;;;;;;12.97;8.03;;;3.60;99.90;;;;;;5061645;28;20421;-74
2021/01/07 12:52:29;;;;;;;11.97;7.70;;;3.60;99.90;;;;;;5061021;28;20192;-74
2021/01/07 12:54:56;;;;;;;9.60;6.50;;;3.50;99.90;;;;;;5062021;28;20460;-74
2021/01/07 12:57:24;;;;;;;8.60;5.70;;;3.50;99.90;;;;;;5042149;28;20487;-75
2021/01/07 12:59:52;;;;;;;9.10;6.00;;;3.50;99.90;;;;;;5063049;28;20448;-74